sensor_id;sensor_type;location;lat;lon;timestamp;temperature;humidity
20829;DHT22;10575;50.124;8.582;2024-03-06T00:02:23;8.90;99.90
20829;DHT22;10575;50.124;8.582;2024-03-06T00:04:48;8.90;99.90
20829;DHT22;10575;50.124;8.582;2024-03-06T00:07:15;8.80;99.90
20829;DHT22;10575;50.124;8.582;2024-03-06T00:09:48;8.70;99.90
20829;DHT22;10575;50.124;8.582;2024-03-06T00:12:13;8.60;99.90
20829;DHT22;10575;50.124;8.582;2024-03-06T00:17:29;8.50;99.90
20829;DHT22;10575;50.124;8.582;2024-03-06T00:19:55;8.40;99.90
20829;DHT22;10575;50.124;8.582;2024-03-06T00:22:20;8.40;99.90
20829;DHT22;10575;50.124;8.582;2024-03-06T00:24:46;8.20;99.90
20829;DHT22;10575;50.124;8.582;2024-03-06T00:27:13;8.10;99.90
20829;DHT22;10575;50.124;8.582;2024-03-06T00:55:28;7.80;99.90
20829;DHT22;10575;50.124;8.582;2024-03-06T00:57:53;7.80;99.90
20829;DHT22;10575;50.124;8.582;2024-03-06T01:00:19;7.70;99.90
20829;DHT22;10575;50.124;8.582;2024-03-06T01:02:45;7.70;99.90
20829;DHT22;10575;50.124;8.582;2024-03-06T01:05:10;7.70;99.90
20829;DHT22;10575;50.124;8.582;2024-03-06T01:17:24;7.30;99.90
20829;DHT22;10575;50.124;8.582;2024-03-06T01:19:50;7.20;99.90
20829;DHT22;10575;50.124;8.582;2024-03-06T01:22:16;7.20;99.90
20829;DHT22;10575;50.124;8.582;2024-03-06T01:24:42;7.20;99.90
20829;DHT22;10575;50.124;8.582;2024-03-06T01:27:08;7.20;99.90
20829;DHT22;10575;50.124;8.582;2024-03-06T01:29:33;7.20;99.90
20829;DHT22;10575;50.124;8.582;2024-03-06T01:31:59;7.20;99.90
20829;DHT22;10575;50.124;8.582;2024-03-06T01:34:25;7.20;99.90
20829;DHT22;10575;50.124;8.582;2024-03-06T01:36:51;7.10;99.90
20829;DHT22;10575;50.124;8.582;2024-03-06T01:39:17;7.10;99.90
20829;DHT22;10575;50.124;8.582;2024-03-06T01:41:50;6.90;99.90
20829;DHT22;10575;50.124;8.582;2024-03-06T01:44:19;6.80;99.90
20829;DHT22;10575;50.124;8.582;2024-03-06T01:46:45;6.80;99.90
20829;DHT22;10575;50.124;8.582;2024-03-06T01:49:11;6.90;99.90
20829;DHT22;10575;50.124;8.582;2024-03-06T01:51:39;6.90;99.90
20829;DHT22;10575;50.124;8.582;2024-03-06T01:54:05;6.90;99.90
20829;DHT22;10575;50.124;8.582;2024-03-06T01:56:33;7.00;99.90
20829;DHT22;10575;50.124;8.582;2024-03-06T01:59:00;7.00;99.90
20829;DHT22;10575;50.124;8.582;2024-03-06T02:01:28;7.00;99.90
20829;DHT22;10575;50.124;8.582;2024-03-06T02:03:54;7.00;99.90
20829;DHT22;10575;50.124;8.582;2024-03-06T02:06:19;7.00;99.90
20829;DHT22;10575;50.124;8.582;2024-03-06T02:08:46;6.90;99.90
20829;DHT22;10575;50.124;8.582;2024-03-06T02:11:12;6.80;99.90
20829;DHT22;10575;50.124;8.582;2024-03-06T02:13:39;6.80;99.90
20829;DHT22;10575;50.124;8.582;2024-03-06T02:16:05;6.80;99.90
20829;DHT22;10575;50.124;8.582;2024-03-06T02:18:31;6.90;99.90
20829;DHT22;10575;50.124;8.582;2024-03-06T02:20:57;6.80;99.90
20829;DHT22;10575;50.124;8.582;2024-03-06T02:23:22;6.80;99.90
20829;DHT22;10575;50.124;8.582;2024-03-06T02:25:49;6.70;99.90
20829;DHT22;10575;50.124;8.582;2024-03-06T02:28:15;6.60;99.90
20829;DHT22;10575;50.124;8.582;2024-03-06T02:30:42;6.60;99.90
20829;DHT22;10575;50.124;8.582;2024-03-06T02:33:07;6.70;99.90
20829;DHT22;10575;50.124;8.582;2024-03-06T02:35:33;6.70;99.90
20829;DHT22;10575;50.124;8.582;2024-03-06T02:38:01;6.60;99.90
20829;DHT22;10575;50.124;8.582;2024-03-06T02:40:27;6.50;99.90
20829;DHT22;10575;50.124;8.582;2024-03-06T02:42:52;6.40;99.90
20829;DHT22;10575;50.124;8.582;2024-03-06T02:45:18;6.40;99.90
20829;DHT22;10575;50.124;8.582;2024-03-06T02:47:44;6.40;99.90
20829;DHT22;10575;50.124;8.582;2024-03-06T02:50:10;6.40;99.90
20829;DHT22;10575;50.124;8.582;2024-03-06T02:52:36;6.40;99.90
20829;DHT22;10575;50.124;8.582;2024-03-06T02:55:01;6.40;99.90
20829;DHT22;10575;50.124;8.582;2024-03-06T02:57:27;6.40;99.90
20829;DHT22;10575;50.124;8.582;2024-03-06T02:59:55;6.40;99.90
20829;DHT22;10575;50.124;8.582;2024-03-06T03:02:20;6.30;99.90
20829;DHT22;10575;50.124;8.582;2024-03-06T03:04:46;6.30;99.90
20829;DHT22;10575;50.124;8.582;2024-03-06T03:07:11;6.40;99.90
20829;DHT22;10575;50.124;8.582;2024-03-06T03:09:37;6.40;99.90
20829;DHT22;10575;50.124;8.582;2024-03-06T03:12:06;6.40;99.90
20829;DHT22;10575;50.124;8.582;2024-03-06T03:14:31;6.40;99.90
20829;DHT22;10575;50.124;8.582;2024-03-06T03:16:57;6.40;99.90
20829;DHT22;10575;50.124;8.582;2024-03-06T03:19:22;6.40;99.90
20829;DHT22;10575;50.124;8.582;2024-03-06T03:21:48;6.50;99.90
20829;DHT22;10575;50.124;8.582;2024-03-06T03:24:13;6.40;99.90
20829;DHT22;10575;50.124;8.582;2024-03-06T03:26:39;6.40;99.90
20829;DHT22;10575;50.124;8.582;2024-03-06T03:29:05;6.50;99.90
20829;DHT22;10575;50.124;8.582;2024-03-06T03:31:30;6.50;99.90
20829;DHT22;10575;50.124;8.582;2024-03-06T03:33:56;6.50;99.90
20829;DHT22;10575;50.124;8.582;2024-03-06T03:36:22;6.40;99.90
20829;DHT22;10575;50.124;8.582;2024-03-06T03:38:48;6.40;99.90
20829;DHT22;10575;50.124;8.582;2024-03-06T03:41:13;6.40;99.90
20829;DHT22;10575;50.124;8.582;2024-03-06T03:43:40;6.40;99.90
20829;DHT22;10575;50.124;8.582;2024-03-06T03:46:05;6.40;99.90
20829;DHT22;10575;50.124;8.582;2024-03-06T03:48:32;6.40;99.90
20829;DHT22;10575;50.124;8.582;2024-03-06T03:51:01;6.50;99.90
20829;DHT22;10575;50.124;8.582;2024-03-06T03:53:28;6.50;99.90
20829;DHT22;10575;50.124;8.582;2024-03-06T03:55:53;6.50;99.90
20829;DHT22;10575;50.124;8.582;2024-03-06T03:58:19;6.40;99.90
20829;DHT22;10575;50.124;8.582;2024-03-06T04:00:44;6.40;99.90
20829;DHT22;10575;50.124;8.582;2024-03-06T04:03:10;6.40;99.90
20829;DHT22;10575;50.124;8.582;2024-03-06T04:05:35;6.40;99.90
20829;DHT22;10575;50.124;8.582;2024-03-06T04:08:03;6.30;99.90
20829;DHT22;10575;50.124;8.582;2024-03-06T04:10:31;6.20;99.90
20829;DHT22;10575;50.124;8.582;2024-03-06T04:12:58;6.20;99.90
20829;DHT22;10575;50.124;8.582;2024-03-06T04:15:25;6.20;99.90
20829;DHT22;10575;50.124;8.582;2024-03-06T04:17:50;6.20;99.90
20829;DHT22;10575;50.124;8.582;2024-03-06T04:20:16;6.10;99.90
20829;DHT22;10575;50.124;8.582;2024-03-06T04:22:41;6.00;99.90
20829;DHT22;10575;50.124;8.582;2024-03-06T04:25:07;6.00;99.90
20829;DHT22;10575;50.124;8.582;2024-03-06T04:27:33;6.00;99.90
20829;DHT22;10575;50.124;8.582;2024-03-06T04:29:59;6.00;99.90
20829;DHT22;10575;50.124;8.582;2024-03-06T04:32:27;6.00;99.90
20829;DHT22;10575;50.124;8.582;2024-03-06T04:34:52;6.10;99.90
20829;DHT22;10575;50.124;8.582;2024-03-06T04:37:19;6.10;99.90
20829;DHT22;10575;50.124;8.582;2024-03-06T04:39:44;6.20;99.90
20829;DHT22;10575;50.124;8.582;2024-03-06T04:42:10;6.20;99.90
20829;DHT22;10575;50.124;8.582;2024-03-06T04:44:36;6.30;99.90
20829;DHT22;10575;50.124;8.582;2024-03-06T04:47:01;6.30;99.90
20829;DHT22;10575;50.124;8.582;2024-03-06T04:49:27;6.40;99.90
20829;DHT22;10575;50.124;8.582;2024-03-06T04:51:53;6.40;99.90
20829;DHT22;10575;50.124;8.582;2024-03-06T04:54:18;6.40;99.90
20829;DHT22;10575;50.124;8.582;2024-03-06T04:56:44;6.50;99.90
20829;DHT22;10575;50.124;8.582;2024-03-06T04:59:09;6.50;99.90
20829;DHT22;10575;50.124;8.582;2024-03-06T05:01:35;6.50;99.90
20829;DHT22;10575;50.124;8.582;2024-03-06T05:04:00;6.50;99.90
20829;DHT22;10575;50.124;8.582;2024-03-06T05:06:26;6.50;99.90
20829;DHT22;10575;50.124;8.582;2024-03-06T05:08:51;6.50;99.90
20829;DHT22;10575;50.124;8.582;2024-03-06T05:11:17;6.50;99.90
20829;DHT22;10575;50.124;8.582;2024-03-06T05:13:43;6.40;99.90
20829;DHT22;10575;50.124;8.582;2024-03-06T05:16:08;6.40;99.90
20829;DHT22;10575;50.124;8.582;2024-03-06T05:18:34;6.50;99.90
20829;DHT22;10575;50.124;8.582;2024-03-06T05:21:00;6.50;99.90
20829;DHT22;10575;50.124;8.582;2024-03-06T05:23:26;6.60;99.90
20829;DHT22;10575;50.124;8.582;2024-03-06T05:25:51;6.60;99.90
20829;DHT22;10575;50.124;8.582;2024-03-06T05:28:16;6.60;99.90
20829;DHT22;10575;50.124;8.582;2024-03-06T05:30:42;6.50;99.90
20829;DHT22;10575;50.124;8.582;2024-03-06T05:33:07;6.40;99.90
20829;DHT22;10575;50.124;8.582;2024-03-06T05:35:33;6.40;99.90
20829;DHT22;10575;50.124;8.582;2024-03-06T05:37:58;6.40;99.90
20829;DHT22;10575;50.124;8.582;2024-03-06T05:40:24;6.40;99.90
20829;DHT22;10575;50.124;8.582;2024-03-06T05:42:49;6.50;99.90
20829;DHT22;10575;50.124;8.582;2024-03-06T05:45:15;6.50;99.90
20829;DHT22;10575;50.124;8.582;2024-03-06T05:47:40;6.50;99.90
20829;DHT22;10575;50.124;8.582;2024-03-06T05:50:06;6.50;99.90
20829;DHT22;10575;50.124;8.582;2024-03-06T05:52:32;6.50;99.90
20829;DHT22;10575;50.124;8.582;2024-03-06T05:54:59;6.50;99.90
20829;DHT22;10575;50.124;8.582;2024-03-06T05:57:24;6.40;99.90
20829;DHT22;10575;50.124;8.582;2024-03-06T05:59:50;6.40;99.90
20829;DHT22;10575;50.124;8.582;2024-03-06T06:02:16;6.40;99.90
20829;DHT22;10575;50.124;8.582;2024-03-06T06:04:45;6.40;99.90
20829;DHT22;10575;50.124;8.582;2024-03-06T06:07:11;6.50;99.90
20829;DHT22;10575;50.124;8.582;2024-03-06T06:09:36;6.60;99.90
20829;DHT22;10575;50.124;8.582;2024-03-06T06:12:02;6.60;99.90
20829;DHT22;10575;50.124;8.582;2024-03-06T06:14:28;6.70;99.90
20829;DHT22;10575;50.124;8.582;2024-03-06T06:16:56;6.70;99.90
20829;DHT22;10575;50.124;8.582;2024-03-06T06:19:22;6.60;99.90
20829;DHT22;10575;50.124;8.582;2024-03-06T06:21:47;6.60;99.90
20829;DHT22;10575;50.124;8.582;2024-03-06T06:24:13;6.50;99.90
20829;DHT22;10575;50.124;8.582;2024-03-06T06:26:39;6.40;99.90
20829;DHT22;10575;50.124;8.582;2024-03-06T06:29:05;6.40;99.90
20829;DHT22;10575;50.124;8.582;2024-03-06T06:31:30;6.50;99.90
20829;DHT22;10575;50.124;8.582;2024-03-06T06:33:56;6.60;99.90
20829;DHT22;10575;50.124;8.582;2024-03-06T06:36:22;6.60;99.90
20829;DHT22;10575;50.124;8.582;2024-03-06T06:38:49;6.60;99.90
20829;DHT22;10575;50.124;8.582;2024-03-06T06:41:15;6.70;99.90
20829;DHT22;10575;50.124;8.582;2024-03-06T06:43:41;6.80;99.90
20829;DHT22;10575;50.124;8.582;2024-03-06T06:46:07;6.90;99.90
20829;DHT22;10575;50.124;8.582;2024-03-06T06:48:33;6.90;99.90
20829;DHT22;10575;50.124;8.582;2024-03-06T06:51:00;7.00;99.90
20829;DHT22;10575;50.124;8.582;2024-03-06T06:53:28;7.10;99.90
20829;DHT22;10575;50.124;8.582;2024-03-06T06:55:53;7.20;99.90
20829;DHT22;10575;50.124;8.582;2024-03-06T06:58:19;7.40;99.90
20829;DHT22;10575;50.124;8.582;2024-03-06T07:00:45;7.60;99.90
20829;DHT22;10575;50.124;8.582;2024-03-06T07:03:11;7.70;99.90
20829;DHT22;10575;50.124;8.582;2024-03-06T07:05:36;7.90;99.90
20829;DHT22;10575;50.124;8.582;2024-03-06T07:08:02;8.20;99.90
20829;DHT22;10575;50.124;8.582;2024-03-06T07:10:27;8.40;99.90
20829;DHT22;10575;50.124;8.582;2024-03-06T07:12:53;8.60;99.90
20829;DHT22;10575;50.124;8.582;2024-03-06T07:15:19;8.80;99.90
20829;DHT22;10575;50.124;8.582;2024-03-06T07:17:44;9.00;99.90
20829;DHT22;10575;50.124;8.582;2024-03-06T07:20:12;9.20;99.90
20829;DHT22;10575;50.124;8.582;2024-03-06T07:22:39;9.30;99.90
20829;DHT22;10575;50.124;8.582;2024-03-06T07:25:05;9.40;99.90
20829;DHT22;10575;50.124;8.582;2024-03-06T07:27:31;9.50;99.90
20829;DHT22;10575;50.124;8.582;2024-03-06T07:29:56;9.40;99.90
20829;DHT22;10575;50.124;8.582;2024-03-06T07:32:22;9.40;99.90
20829;DHT22;10575;50.124;8.582;2024-03-06T07:34:47;9.40;99.90
20829;DHT22;10575;50.124;8.582;2024-03-06T07:37:13;9.40;99.90
20829;DHT22;10575;50.124;8.582;2024-03-06T07:39:40;9.40;99.90
20829;DHT22;10575;50.124;8.582;2024-03-06T07:42:06;9.50;99.90
20829;DHT22;10575;50.124;8.582;2024-03-06T07:44:33;9.70;99.90
20829;DHT22;10575;50.124;8.582;2024-03-06T07:47:01;9.90;99.90
20829;DHT22;10575;50.124;8.582;2024-03-06T07:49:27;10.10;99.90
20829;DHT22;10575;50.124;8.582;2024-03-06T07:51:52;10.30;99.90
20829;DHT22;10575;50.124;8.582;2024-03-06T07:54:18;10.30;99.90
20829;DHT22;10575;50.124;8.582;2024-03-06T07:56:44;10.50;99.90
20829;DHT22;10575;50.124;8.582;2024-03-06T07:59:09;10.70;99.90
20829;DHT22;10575;50.124;8.582;2024-03-06T08:01:38;10.90;99.90
20829;DHT22;10575;50.124;8.582;2024-03-06T08:04:03;11.10;99.90
20829;DHT22;10575;50.124;8.582;2024-03-06T08:06:29;11.30;99.90
20829;DHT22;10575;50.124;8.582;2024-03-06T08:08:59;11.60;99.90
20829;DHT22;10575;50.124;8.582;2024-03-06T08:11:24;11.80;99.90
20829;DHT22;10575;50.124;8.582;2024-03-06T08:13:56;11.80;99.90
20829;DHT22;10575;50.124;8.582;2024-03-06T08:16:21;12.50;99.90
20829;DHT22;10575;50.124;8.582;2024-03-06T08:18:47;13.90;99.90
20829;DHT22;10575;50.124;8.582;2024-03-06T08:21:13;15.20;99.90
20829;DHT22;10575;50.124;8.582;2024-03-06T08:23:38;16.20;99.90
20829;DHT22;10575;50.124;8.582;2024-03-06T08:26:04;16.50;99.90
20829;DHT22;10575;50.124;8.582;2024-03-06T08:28:29;16.50;99.90
20829;DHT22;10575;50.124;8.582;2024-03-06T08:30:55;16.10;99.90
20829;DHT22;10575;50.124;8.582;2024-03-06T08:33:20;15.40;99.90
20829;DHT22;10575;50.124;8.582;2024-03-06T08:35:47;14.70;99.90
20829;DHT22;10575;50.124;8.582;2024-03-06T08:38:13;14.00;99.90
20829;DHT22;10575;50.124;8.582;2024-03-06T08:40:39;13.40;99.90
20829;DHT22;10575;50.124;8.582;2024-03-06T08:43:04;12.80;99.90
20829;DHT22;10575;50.124;8.582;2024-03-06T08:45:30;12.60;99.90
20829;DHT22;10575;50.124;8.582;2024-03-06T08:47:55;12.40;99.90
20829;DHT22;10575;50.124;8.582;2024-03-06T08:50:21;12.30;99.90
20829;DHT22;10575;50.124;8.582;2024-03-06T08:52:46;12.20;99.90
20829;DHT22;10575;50.124;8.582;2024-03-06T08:55:12;11.80;99.90
20829;DHT22;10575;50.124;8.582;2024-03-06T08:57:38;11.80;99.90
20829;DHT22;10575;50.124;8.582;2024-03-06T09:00:06;12.00;99.90
20829;DHT22;10575;50.124;8.582;2024-03-06T09:02:35;11.90;99.90
20829;DHT22;10575;50.124;8.582;2024-03-06T09:05:01;11.80;99.90
20829;DHT22;10575;50.124;8.582;2024-03-06T09:07:30;11.70;99.90
20829;DHT22;10575;50.124;8.582;2024-03-06T09:09:55;11.70;99.90
20829;DHT22;10575;50.124;8.582;2024-03-06T09:12:22;11.40;99.90
20829;DHT22;10575;50.124;8.582;2024-03-06T09:14:47;11.00;99.90
20829;DHT22;10575;50.124;8.582;2024-03-06T09:17:13;10.50;99.90
20829;DHT22;10575;50.124;8.582;2024-03-06T09:19:40;10.30;99.90
20829;DHT22;10575;50.124;8.582;2024-03-06T09:22:06;10.30;99.90
20829;DHT22;10575;50.124;8.582;2024-03-06T09:24:31;10.20;99.90
20829;DHT22;10575;50.124;8.582;2024-03-06T09:26:57;10.10;99.90
20829;DHT22;10575;50.124;8.582;2024-03-06T09:29:23;10.00;99.90
20829;DHT22;10575;50.124;8.582;2024-03-06T09:31:49;10.20;99.90
20829;DHT22;10575;50.124;8.582;2024-03-06T09:34:15;10.10;99.90
20829;DHT22;10575;50.124;8.582;2024-03-06T09:36:41;10.20;99.90
20829;DHT22;10575;50.124;8.582;2024-03-06T09:39:11;10.00;99.90
20829;DHT22;10575;50.124;8.582;2024-03-06T09:41:36;10.00;99.90
20829;DHT22;10575;50.124;8.582;2024-03-06T09:44:04;10.00;99.90
20829;DHT22;10575;50.124;8.582;2024-03-06T09:46:30;9.90;99.90
20829;DHT22;10575;50.124;8.582;2024-03-06T09:48:56;9.90;99.90
20829;DHT22;10575;50.124;8.582;2024-03-06T09:51:21;10.10;99.90
20829;DHT22;10575;50.124;8.582;2024-03-06T09:53:47;10.10;99.90
20829;DHT22;10575;50.124;8.582;2024-03-06T09:56:17;10.20;99.90
20829;DHT22;10575;50.124;8.582;2024-03-06T09:58:42;10.30;99.90
20829;DHT22;10575;50.124;8.582;2024-03-06T10:01:08;10.50;99.90
20829;DHT22;10575;50.124;8.582;2024-03-06T10:03:33;10.90;99.90
20829;DHT22;10575;50.124;8.582;2024-03-06T10:06:00;11.40;99.90
20829;DHT22;10575;50.124;8.582;2024-03-06T10:08:25;11.60;99.90
20829;DHT22;10575;50.124;8.582;2024-03-06T10:10:52;11.70;99.90
20829;DHT22;10575;50.124;8.582;2024-03-06T10:13:17;11.60;99.90
20829;DHT22;10575;50.124;8.582;2024-03-06T10:15:59;11.60;99.90
20829;DHT22;10575;50.124;8.582;2024-03-06T10:18:29;11.70;99.90
20829;DHT22;10575;50.124;8.582;2024-03-06T10:20:58;11.70;99.90
20829;DHT22;10575;50.124;8.582;2024-03-06T10:23:24;12.20;99.90
20829;DHT22;10575;50.124;8.582;2024-03-06T10:25:50;12.30;99.90
20829;DHT22;10575;50.124;8.582;2024-03-06T10:28:18;12.40;99.90
20829;DHT22;10575;50.124;8.582;2024-03-06T10:30:44;12.40;99.90
20829;DHT22;10575;50.124;8.582;2024-03-06T10:33:11;12.50;99.90
20829;DHT22;10575;50.124;8.582;2024-03-06T10:35:40;12.70;99.90
20829;DHT22;10575;50.124;8.582;2024-03-06T10:38:07;12.70;99.90
20829;DHT22;10575;50.124;8.582;2024-03-06T10:40:35;12.60;99.90
20829;DHT22;10575;50.124;8.582;2024-03-06T10:43:02;12.40;99.90
20829;DHT22;10575;50.124;8.582;2024-03-06T10:45:49;12.60;99.90
20829;DHT22;10575;50.124;8.582;2024-03-06T10:48:15;12.60;99.90
20829;DHT22;10575;50.124;8.582;2024-03-06T10:50:43;12.50;99.90
20829;DHT22;10575;50.124;8.582;2024-03-06T10:53:10;12.40;99.90
20829;DHT22;10575;50.124;8.582;2024-03-06T10:55:37;12.10;99.90
20829;DHT22;10575;50.124;8.582;2024-03-06T10:58:07;12.00;99.90
20829;DHT22;10575;50.124;8.582;2024-03-06T11:00:46;12.20;99.90
20829;DHT22;10575;50.124;8.582;2024-03-06T11:03:13;12.30;99.90
20829;DHT22;10575;50.124;8.582;2024-03-06T11:05:40;12.30;99.90
20829;DHT22;10575;50.124;8.582;2024-03-06T11:08:10;12.20;99.90
20829;DHT22;10575;50.124;8.582;2024-03-06T11:10:37;12.00;99.90
20829;DHT22;10575;50.124;8.582;2024-03-06T11:13:25;12.00;99.90
20829;DHT22;10575;50.124;8.582;2024-03-06T11:15:52;12.00;99.90
20829;DHT22;10575;50.124;8.582;2024-03-06T11:23:33;11.80;99.90
20829;DHT22;10575;50.124;8.582;2024-03-06T11:26:05;11.80;99.90
20829;DHT22;10575;50.124;8.582;2024-03-06T11:28:36;11.90;99.90
20829;DHT22;10575;50.124;8.582;2024-03-06T11:31:12;12.10;99.90
20829;DHT22;10575;50.124;8.582;2024-03-06T11:33:45;12.40;99.90
20829;DHT22;10575;50.124;8.582;2024-03-06T11:36:22;12.20;99.90
20829;DHT22;10575;50.124;8.582;2024-03-06T11:41:22;11.90;99.90
20829;DHT22;10575;50.124;8.582;2024-03-06T11:43:49;11.90;99.90
20829;DHT22;10575;50.124;8.582;2024-03-06T11:46:16;11.80;99.90
20829;DHT22;10575;50.124;8.582;2024-03-06T11:48:42;11.70;99.90
20829;DHT22;10575;50.124;8.582;2024-03-06T11:51:09;11.90;99.90
20829;DHT22;10575;50.124;8.582;2024-03-06T11:53:34;12.20;99.90
20829;DHT22;10575;50.124;8.582;2024-03-06T11:56:07;12.20;99.90
20829;DHT22;10575;50.124;8.582;2024-03-06T11:58:33;12.30;99.90
20829;DHT22;10575;50.124;8.582;2024-03-06T12:00:59;12.10;99.90
20829;DHT22;10575;50.124;8.582;2024-03-06T12:03:27;12.10;99.90
20829;DHT22;10575;50.124;8.582;2024-03-06T12:05:52;12.00;99.90
20829;DHT22;10575;50.124;8.582;2024-03-06T12:08:18;11.90;99.90
20829;DHT22;10575;50.124;8.582;2024-03-06T12:10:45;11.80;99.90
20829;DHT22;10575;50.124;8.582;2024-03-06T12:13:11;11.90;99.90
20829;DHT22;10575;50.124;8.582;2024-03-06T12:15:37;12.10;99.90
20829;DHT22;10575;50.124;8.582;2024-03-06T12:18:03;12.20;99.90
20829;DHT22;10575;50.124;8.582;2024-03-06T12:20:28;12.10;99.90
20829;DHT22;10575;50.124;8.582;2024-03-06T12:22:56;11.90;99.90
20829;DHT22;10575;50.124;8.582;2024-03-06T12:25:26;11.90;99.90
20829;DHT22;10575;50.124;8.582;2024-03-06T12:27:54;12.10;99.90
20829;DHT22;10575;50.124;8.582;2024-03-06T12:30:20;12.10;99.90
20829;DHT22;10575;50.124;8.582;2024-03-06T12:32:59;12.20;99.90
20829;DHT22;10575;50.124;8.582;2024-03-06T12:35:26;12.20;99.90
20829;DHT22;10575;50.124;8.582;2024-03-06T12:37:52;12.20;99.90
20829;DHT22;10575;50.124;8.582;2024-03-06T12:40:21;12.10;99.90
20829;DHT22;10575;50.124;8.582;2024-03-06T12:42:47;12.20;99.90
20829;DHT22;10575;50.124;8.582;2024-03-06T12:45:13;12.30;99.90
20829;DHT22;10575;50.124;8.582;2024-03-06T12:47:42;12.30;99.90
20829;DHT22;10575;50.124;8.582;2024-03-06T12:50:09;12.40;99.90
20829;DHT22;10575;50.124;8.582;2024-03-06T12:52:36;12.30;99.90
20829;DHT22;10575;50.124;8.582;2024-03-06T12:55:02;12.40;99.90
20829;DHT22;10575;50.124;8.582;2024-03-06T12:57:28;12.70;99.90
20829;DHT22;10575;50.124;8.582;2024-03-06T12:59:54;12.60;99.90
20829;DHT22;10575;50.124;8.582;2024-03-06T13:02:19;12.60;99.90
20829;DHT22;10575;50.124;8.582;2024-03-06T13:04:45;12.40;99.90
20829;DHT22;10575;50.124;8.582;2024-03-06T13:07:11;12.60;99.90
20829;DHT22;10575;50.124;8.582;2024-03-06T13:09:36;12.60;99.90
20829;DHT22;10575;50.124;8.582;2024-03-06T13:12:04;12.70;99.90
20829;DHT22;10575;50.124;8.582;2024-03-06T13:14:29;12.50;99.90
20829;DHT22;10575;50.124;8.582;2024-03-06T13:16:55;12.40;99.90
20829;DHT22;10575;50.124;8.582;2024-03-06T13:19:21;12.30;99.90
20829;DHT22;10575;50.124;8.582;2024-03-06T13:21:47;12.30;99.90
20829;DHT22;10575;50.124;8.582;2024-03-06T13:24:13;12.20;99.90
20829;DHT22;10575;50.124;8.582;2024-03-06T13:26:38;12.30;99.90
20829;DHT22;10575;50.124;8.582;2024-03-06T13:29:05;12.40;99.90
20829;DHT22;10575;50.124;8.582;2024-03-06T13:31:31;12.40;99.90
20829;DHT22;10575;50.124;8.582;2024-03-06T13:33:59;12.70;99.90
20829;DHT22;10575;50.124;8.582;2024-03-06T13:36:26;12.70;99.90
20829;DHT22;10575;50.124;8.582;2024-03-06T13:38:51;12.60;99.90
20829;DHT22;10575;50.124;8.582;2024-03-06T13:41:17;12.50;99.90
20829;DHT22;10575;50.124;8.582;2024-03-06T13:43:43;12.30;99.90
20829;DHT22;10575;50.124;8.582;2024-03-06T13:46:09;12.40;99.90
20829;DHT22;10575;50.124;8.582;2024-03-06T13:48:34;12.20;99.90
20829;DHT22;10575;50.124;8.582;2024-03-06T13:51:01;12.20;99.90
20829;DHT22;10575;50.124;8.582;2024-03-06T13:53:27;12.10;99.90
20829;DHT22;10575;50.124;8.582;2024-03-06T13:55:52;12.10;99.90
20829;DHT22;10575;50.124;8.582;2024-03-06T13:58:18;12.00;99.90
20829;DHT22;10575;50.124;8.582;2024-03-06T14:00:43;12.10;99.90
20829;DHT22;10575;50.124;8.582;2024-03-06T14:03:11;12.00;99.90
20829;DHT22;10575;50.124;8.582;2024-03-06T14:05:37;12.00;99.90
20829;DHT22;10575;50.124;8.582;2024-03-06T14:08:03;11.90;99.90
20829;DHT22;10575;50.124;8.582;2024-03-06T14:10:29;11.90;99.90
20829;DHT22;10575;50.124;8.582;2024-03-06T14:12:59;11.90;99.90
20829;DHT22;10575;50.124;8.582;2024-03-06T14:15:25;12.00;99.90
20829;DHT22;10575;50.124;8.582;2024-03-06T14:17:52;12.00;99.90
20829;DHT22;10575;50.124;8.582;2024-03-06T14:20:20;11.90;99.90
20829;DHT22;10575;50.124;8.582;2024-03-06T14:22:46;11.90;99.90
20829;DHT22;10575;50.124;8.582;2024-03-06T14:25:11;11.80;99.90
20829;DHT22;10575;50.124;8.582;2024-03-06T14:27:37;11.80;99.90
20829;DHT22;10575;50.124;8.582;2024-03-06T14:30:07;11.90;99.90
20829;DHT22;10575;50.124;8.582;2024-03-06T14:32:33;12.20;99.90
20829;DHT22;10575;50.124;8.582;2024-03-06T14:34:58;12.10;99.90
20829;DHT22;10575;50.124;8.582;2024-03-06T14:37:24;12.10;99.90
20829;DHT22;10575;50.124;8.582;2024-03-06T14:39:49;12.00;99.90
20829;DHT22;10575;50.124;8.582;2024-03-06T14:42:16;12.00;99.90
20829;DHT22;10575;50.124;8.582;2024-03-06T14:44:42;12.00;99.90
20829;DHT22;10575;50.124;8.582;2024-03-06T14:47:09;11.90;99.90
20829;DHT22;10575;50.124;8.582;2024-03-06T14:49:34;11.90;99.90
20829;DHT22;10575;50.124;8.582;2024-03-06T14:52:00;11.90;99.90
20829;DHT22;10575;50.124;8.582;2024-03-06T14:54:25;11.90;99.90
20829;DHT22;10575;50.124;8.582;2024-03-06T14:56:52;11.80;99.90
20829;DHT22;10575;50.124;8.582;2024-03-06T14:59:18;11.70;99.90
20829;DHT22;10575;50.124;8.582;2024-03-06T15:01:44;11.60;99.90
20829;DHT22;10575;50.124;8.582;2024-03-06T15:04:10;11.50;99.90
20829;DHT22;10575;50.124;8.582;2024-03-06T15:06:37;11.50;99.90
20829;DHT22;10575;50.124;8.582;2024-03-06T15:09:03;11.50;99.90
20829;DHT22;10575;50.124;8.582;2024-03-06T15:11:30;11.50;99.90
20829;DHT22;10575;50.124;8.582;2024-03-06T15:13:58;11.40;99.90
20829;DHT22;10575;50.124;8.582;2024-03-06T15:16:23;11.50;99.90
20829;DHT22;10575;50.124;8.582;2024-03-06T15:18:49;11.70;99.90
20829;DHT22;10575;50.124;8.582;2024-03-06T15:21:17;11.70;99.90
20829;DHT22;10575;50.124;8.582;2024-03-06T15:23:42;11.70;99.90
20829;DHT22;10575;50.124;8.582;2024-03-06T15:26:08;11.60;99.90
20829;DHT22;10575;50.124;8.582;2024-03-06T15:28:33;11.60;99.90
20829;DHT22;10575;50.124;8.582;2024-03-06T15:30:59;11.60;99.90
20829;DHT22;10575;50.124;8.582;2024-03-06T15:33:25;11.60;99.90
20829;DHT22;10575;50.124;8.582;2024-03-06T15:35:53;11.50;99.90
20829;DHT22;10575;50.124;8.582;2024-03-06T15:38:18;11.50;99.90
20829;DHT22;10575;50.124;8.582;2024-03-06T15:40:45;11.40;99.90
20829;DHT22;10575;50.124;8.582;2024-03-06T15:43:13;11.30;99.90
20829;DHT22;10575;50.124;8.582;2024-03-06T15:45:38;11.30;99.90
20829;DHT22;10575;50.124;8.582;2024-03-06T15:48:04;11.30;99.90
20829;DHT22;10575;50.124;8.582;2024-03-06T15:50:30;11.40;99.90
20829;DHT22;10575;50.124;8.582;2024-03-06T15:52:55;11.30;99.90
20829;DHT22;10575;50.124;8.582;2024-03-06T15:55:21;11.40;99.90
20829;DHT22;10575;50.124;8.582;2024-03-06T15:57:46;11.40;99.90
20829;DHT22;10575;50.124;8.582;2024-03-06T16:00:12;11.40;99.90
20829;DHT22;10575;50.124;8.582;2024-03-06T16:02:40;11.40;99.90
20829;DHT22;10575;50.124;8.582;2024-03-06T16:05:07;11.40;99.90
20829;DHT22;10575;50.124;8.582;2024-03-06T16:07:33;11.30;99.90
20829;DHT22;10575;50.124;8.582;2024-03-06T16:09:59;11.30;99.90
20829;DHT22;10575;50.124;8.582;2024-03-06T16:12:24;11.30;99.90
20829;DHT22;10575;50.124;8.582;2024-03-06T16:14:50;11.20;99.90
20829;DHT22;10575;50.124;8.582;2024-03-06T16:17:16;11.10;99.90
20829;DHT22;10575;50.124;8.582;2024-03-06T16:19:41;11.00;99.90